< Typhoon 196427 1964 Season Typhoon 196429 >
Typhoon 196428 (IRIS)
General InformationTrack Information on Google Maps || Disaster Info.ResourceGoogle EarthGE AnimationAtom FeedGeoJSON
Detalied Best Track (Time Zone = UTC)
Year Month Day Hour Lat. Long. Pressure (hPa) Wind (kt) Class Image Chart
1964 10 31 00 11.8 128.1 1006 0 2 -- Chart
1964 10 31 06 12.0 127.0 1004 0 2 -- Chart
1964 10 31 12 12.2 125.8 1006 0 2 -- Chart
1964 10 31 18 12.5 124.6 1006 0 2 -- Chart
1964 11 1 00 13.0 122.0 1006 0 2 -- Chart
1964 11 1 06 13.5 120.1 1006 0 2 -- Chart
1964 11 1 12 14.4 118.2 1004 0 2 -- Chart
1964 11 1 18 13.8 117.1 1004 0 2 -- Chart
1964 11 2 00 13.5 115.9 1004 0 2 -- Chart
1964 11 2 06 13.5 115.4 1004 0 2 -- Chart
1964 11 2 12 13.6 114.7 1004 0 2 -- Chart
1964 11 2 18 14.0 114.0 1004 0 2 -- Chart
1964 11 3 00 14.4 113.4 1002 0 2 -- Chart
1964 11 3 06 14.7 112.7 1000 0 9 -- Chart
1964 11 3 12 14.8 111.6 1000 0 9 -- Chart
1964 11 3 18 14.2 110.7 996 0 2 -- Chart
1964 11 4 00 13.7 109.8 996 0 2 -- Chart
1964 11 4 06 13.6 109.3 1002 0 2 -- Chart
1964 11 4 12 13.5 108.5 1004 0 2 -- Chart
1964 11 4 18 13.5 107.8 1004 0 2 -- Chart
1964 11 5 00 13.4 107.0 1006 0 2 -- Chart
1964 11 5 06 14.0 106.0 1006 0 2 -- Chart
1964 11 5 12 14.0 105.2 1006 0 2 -- Chart
Japan Meteorological Agency Best Track Data | Correction Date : 1989-06-01
< Typhoon 196427 1964 Season Typhoon 196429 >

Help